createdAt,value
2018-10-19T00:02:09.695Z,100.00
2018-10-19T00:04:40.235Z,100.00
2018-10-19T00:07:10.837Z,100.00
2018-10-19T00:09:41.378Z,100.00
2018-10-19T00:12:11.866Z,100.00
2018-10-19T00:14:42.484Z,100.00
2018-10-19T00:17:13.438Z,100.00
2018-10-19T00:19:44.012Z,100.00
2018-10-19T00:22:14.434Z,100.00
2018-10-19T00:24:45.047Z,100.00
2018-10-19T00:27:15.689Z,100.00
2018-10-19T00:29:47.500Z,100.00
2018-10-19T00:32:17.979Z,100.00
2018-10-19T00:34:48.401Z,100.00
2018-10-19T00:37:18.878Z,100.00
2018-10-19T00:39:49.389Z,100.00
2018-10-19T00:42:19.821Z,100.00
2018-10-19T00:44:50.298Z,100.00
2018-10-19T00:47:20.948Z,100.00
2018-10-19T00:49:51.369Z,100.00
2018-10-19T00:52:21.856Z,100.00
2018-10-19T00:54:52.639Z,100.00
2018-10-19T00:57:23.187Z,100.00
2018-10-19T00:59:53.770Z,100.00
2018-10-19T01:02:24.281Z,100.00
2018-10-19T01:04:54.747Z,100.00
2018-10-19T01:07:25.393Z,100.00
2018-10-19T01:09:55.934Z,100.00
2018-10-19T01:12:26.394Z,100.00
2018-10-19T01:14:57.040Z,100.00
2018-10-19T01:17:27.580Z,100.00
2018-10-19T01:19:58.073Z,100.00
2018-10-19T01:22:28.571Z,100.00
2018-10-19T01:24:59.085Z,100.00
2018-10-19T01:27:29.537Z,100.00
2018-10-19T01:30:00.097Z,100.00
2018-10-19T01:32:30.667Z,100.00
2018-10-19T01:35:02.326Z,100.00
2018-10-19T01:37:32.744Z,100.00
2018-10-19T01:40:04.356Z,100.00
2018-10-19T01:42:34.847Z,100.00
2018-10-19T01:45:05.825Z,100.00
2018-10-19T01:47:36.335Z,100.00
2018-10-19T01:50:07.822Z,100.00
2018-10-19T01:52:38.680Z,100.00
2018-10-19T01:55:10.154Z,100.00
2018-10-19T01:57:40.697Z,100.00
2018-10-19T02:00:11.225Z,100.00
2018-10-19T02:02:41.763Z,100.00
2018-10-19T02:05:12.511Z,100.00
2018-10-19T02:07:43.012Z,100.00
2018-10-19T02:10:13.534Z,100.00
2018-10-19T02:12:43.940Z,100.00
2018-10-19T02:15:14.443Z,100.00
2018-10-19T02:17:44.854Z,100.00
2018-10-19T02:20:15.305Z,100.00
2018-10-19T02:22:45.757Z,100.00
2018-10-19T02:25:16.370Z,100.00
2018-10-19T02:27:46.768Z,100.00
2018-10-19T02:30:17.352Z,100.00
2018-10-19T02:32:47.861Z,100.00
2018-10-19T02:35:18.502Z,100.00
2018-10-19T02:37:49.084Z,100.00
2018-10-19T02:40:19.530Z,100.00
2018-10-19T02:42:49.938Z,100.00
2018-10-19T02:45:20.387Z,100.00
2018-10-19T02:47:50.750Z,100.00
2018-10-19T02:50:21.140Z,100.00
2018-10-19T02:52:51.616Z,100.00
2018-10-19T02:55:22.297Z,100.00
2018-10-19T02:57:52.696Z,100.00
2018-10-19T03:00:23.109Z,100.00
2018-10-19T03:02:53.669Z,100.00
2018-10-19T03:05:24.180Z,100.00
2018-10-19T03:07:54.761Z,100.00
2018-10-19T03:10:25.299Z,100.00
2018-10-19T03:12:55.693Z,100.00
2018-10-19T03:15:26.166Z,100.00
2018-10-19T03:17:56.676Z,100.00
2018-10-19T03:20:27.179Z,100.00
2018-10-19T03:22:57.694Z,100.00
2018-10-19T03:25:28.176Z,100.00
2018-10-19T03:27:58.517Z,100.00
2018-10-19T03:30:29.027Z,100.00
2018-10-19T03:32:59.514Z,100.00
2018-10-19T03:35:31.388Z,100.00
2018-10-19T03:38:01.860Z,100.00
2018-10-19T03:40:32.382Z,100.00
2018-10-19T03:43:02.981Z,100.00
2018-10-19T03:45:33.488Z,100.00
2018-10-19T03:48:03.957Z,100.00
2018-10-19T03:50:34.468Z,100.00
2018-10-19T03:53:04.896Z,100.00
2018-10-19T03:55:35.742Z,100.00
2018-10-19T03:58:06.323Z,100.00
2018-10-19T04:00:36.857Z,100.00
2018-10-19T04:03:07.596Z,100.00
2018-10-19T04:05:38.202Z,100.00
2018-10-19T04:08:08.657Z,100.00
2018-10-19T04:10:39.189Z,100.00
2018-10-19T04:13:09.687Z,100.00
2018-10-19T04:15:40.387Z,100.00
2018-10-19T04:18:10.913Z,100.00
2018-10-19T04:20:41.428Z,100.00
2018-10-19T04:23:11.966Z,100.00
2018-10-19T04:25:42.696Z,100.00
2018-10-19T04:28:13.869Z,100.00
2018-10-19T04:30:44.318Z,100.00
2018-10-19T04:33:14.897Z,100.00
2018-10-19T04:35:45.499Z,100.00
2018-10-19T04:38:15.909Z,100.00
2018-10-19T04:40:46.352Z,100.00
2018-10-19T04:43:16.805Z,100.00
2018-10-19T04:45:47.345Z,100.00
2018-10-19T04:48:17.740Z,100.00
2018-10-19T04:50:48.317Z,100.00
2018-10-19T04:53:18.826Z,100.00
2018-10-19T04:55:50.261Z,100.00
2018-10-19T04:58:20.669Z,100.00
2018-10-19T05:00:51.161Z,100.00
2018-10-19T05:03:21.625Z,100.00
2018-10-19T05:05:52.099Z,100.00
2018-10-19T05:08:22.542Z,100.00
2018-10-19T05:10:52.953Z,100.00
2018-10-19T05:13:23.418Z,100.00
2018-10-19T05:15:53.993Z,100.00
2018-10-19T05:18:24.512Z,100.00
2018-10-19T05:20:55.045Z,100.00
2018-10-19T05:23:25.477Z,100.00
2018-10-19T05:25:55.961Z,100.00
2018-10-19T05:28:26.368Z,100.00
2018-10-19T05:30:56.809Z,100.00
2018-10-19T05:33:27.295Z,100.00
2018-10-19T05:35:57.898Z,100.00
2018-10-19T05:38:28.393Z,100.00
2018-10-19T05:40:58.901Z,100.00
2018-10-19T05:43:29.399Z,100.00
2018-10-19T05:45:59.868Z,100.00
2018-10-19T05:48:30.278Z,100.00
2018-10-19T05:51:00.736Z,100.00
2018-10-19T05:53:31.302Z,100.00
2018-10-19T05:56:01.854Z,100.00
2018-10-19T05:58:32.973Z,100.00
2018-10-19T06:01:03.544Z,100.00
2018-10-19T06:03:34.006Z,100.00
2018-10-19T06:06:04.600Z,100.00
2018-10-19T06:08:35.079Z,100.00
2018-10-19T06:11:06.195Z,100.00
2018-10-19T06:13:36.666Z,100.00
2018-10-19T06:16:07.664Z,100.00
2018-10-19T06:18:38.125Z,100.00
2018-10-19T06:21:08.681Z,100.00
2018-10-19T06:23:39.201Z,100.00
2018-10-19T06:26:09.705Z,100.00
2018-10-19T06:28:40.080Z,100.00
2018-10-19T06:31:10.557Z,100.00
2018-10-19T06:33:41.050Z,100.00
2018-10-19T06:36:12.432Z,100.00
2018-10-19T06:38:42.891Z,100.00
2018-10-19T06:41:13.468Z,100.00
2018-10-19T06:43:43.876Z,100.00
2018-10-19T06:46:14.402Z,100.00
2018-10-19T06:48:44.822Z,100.00
2018-10-19T06:51:15.364Z,100.00
2018-10-19T06:53:45.869Z,100.00
2018-10-19T06:56:16.765Z,100.00
2018-10-19T06:58:47.292Z,100.00
2018-10-19T07:01:17.810Z,100.00
2018-10-19T07:03:48.318Z,100.00
2018-10-19T07:06:18.981Z,100.00
2018-10-19T07:08:49.493Z,100.00
2018-10-19T07:11:19.928Z,100.00
2018-10-19T07:13:50.440Z,100.00
2018-10-19T07:16:21.105Z,100.00
2018-10-19T07:18:51.461Z,100.00
2018-10-19T07:21:22.354Z,100.00
2018-10-19T07:23:53.051Z,100.00
2018-10-19T07:26:23.470Z,100.00
2018-10-19T07:28:54.006Z,100.00
2018-10-19T07:31:24.456Z,100.00
2018-10-19T07:33:55.260Z,100.00
2018-10-19T07:36:26.673Z,100.00
2018-10-19T07:38:57.182Z,100.00
2018-10-19T07:41:27.673Z,100.00
2018-10-19T07:43:58.178Z,100.00
2018-10-19T07:46:28.627Z,100.00
2018-10-19T07:48:59.250Z,100.00
2018-10-19T07:51:29.726Z,100.00
2018-10-19T07:54:01.118Z,100.00
2018-10-19T07:56:31.834Z,100.00
2018-10-19T07:59:02.352Z,100.00
2018-10-19T08:01:32.835Z,100.00
2018-10-19T08:04:03.585Z,100.00
2018-10-19T08:06:34.235Z,100.00
2018-10-19T08:09:05.206Z,100.00
2018-10-19T08:11:35.709Z,100.00
2018-10-19T08:14:06.367Z,100.00
2018-10-19T08:16:36.885Z,100.00
2018-10-19T08:19:07.513Z,100.00
2018-10-19T08:21:37.933Z,100.00
2018-10-19T08:24:08.349Z,100.00
2018-10-19T08:26:38.968Z,100.00
2018-10-19T08:29:09.565Z,100.00
2018-10-19T08:31:40.042Z,100.00
2018-10-19T08:34:10.524Z,100.00
2018-10-19T08:36:41.132Z,100.00
2018-10-19T08:39:11.698Z,100.00
2018-10-19T08:41:42.260Z,100.00
2018-10-19T08:44:12.757Z,100.00
2018-10-19T08:46:43.690Z,100.00
2018-10-19T08:49:14.180Z,100.00
2018-10-19T08:51:44.718Z,98.15
2018-10-19T08:54:15.154Z,93.85
2018-10-19T08:56:46.578Z,93.70
2018-10-19T08:59:17.175Z,93.71
2018-10-19T09:01:47.588Z,95.55
2018-10-19T09:04:18.069Z,90.75
2018-10-19T09:06:48.548Z,90.28
2018-10-19T09:09:19.109Z,90.84
2018-10-19T09:11:49.561Z,89.37
2018-10-19T09:14:31.607Z,88.46
2018-10-19T09:17:02.255Z,88.51
2018-10-19T09:19:32.750Z,90.54
2018-10-19T09:22:03.202Z,89.96
2018-10-19T09:24:33.737Z,87.21
2018-10-19T09:27:04.311Z,85.52
2018-10-19T09:29:34.809Z,84.88
2018-10-19T09:32:05.232Z,89.66
2018-10-19T09:34:35.955Z,89.89
2018-10-19T09:37:08.284Z,91.29
2018-10-19T09:39:38.770Z,92.51
2018-10-19T09:42:09.820Z,94.39
2018-10-19T09:44:40.283Z,94.76
2018-10-19T09:47:10.859Z,91.15
2018-10-19T09:49:41.321Z,93.22
2018-10-19T09:52:11.768Z,96.19
2018-10-19T09:54:42.199Z,96.68
2018-10-19T09:57:12.866Z,99.01
2018-10-19T09:59:43.288Z,99.35
2018-10-19T10:02:13.637Z,99.03
2018-10-19T10:04:44.134Z,98.91
2018-10-19T10:07:14.622Z,98.13
2018-10-19T10:09:45.090Z,97.99
2018-10-19T10:12:15.593Z,99.92
2018-10-19T10:14:46.088Z,99.28
2018-10-19T10:17:16.701Z,100.00
2018-10-19T10:19:47.157Z,100.00
2018-10-19T10:22:17.601Z,100.00
2018-10-19T10:24:48.175Z,100.00
2018-10-19T10:27:18.542Z,99.42
2018-10-19T10:29:49.011Z,100.00
2018-10-19T10:32:19.555Z,100.00
2018-10-19T10:34:50.002Z,100.00
2018-10-19T10:37:20.448Z,100.00
2018-10-19T10:39:50.963Z,100.00
2018-10-19T10:42:21.414Z,100.00
2018-10-19T10:44:51.877Z,100.00
2018-10-19T10:47:22.380Z,100.00
2018-10-19T10:49:52.765Z,100.00
2018-10-19T10:52:23.213Z,100.00
2018-10-19T10:54:53.703Z,100.00
2018-10-19T10:57:25.874Z,100.00
2018-10-19T10:59:56.317Z,100.00
2018-10-19T11:02:26.821Z,100.00
2018-10-19T11:04:57.287Z,100.00
2018-10-19T11:07:27.852Z,100.00
2018-10-19T11:09:58.294Z,100.00
2018-10-19T11:12:28.779Z,100.00
2018-10-19T11:14:59.306Z,100.00
2018-10-19T11:17:30.012Z,100.00
2018-10-19T11:20:00.513Z,98.61
2018-10-19T11:22:30.967Z,99.55
2018-10-19T11:25:01.462Z,96.53
2018-10-19T11:27:31.901Z,97.15
2018-10-19T11:30:02.306Z,96.08
2018-10-19T11:32:32.787Z,93.43
2018-10-19T11:35:03.328Z,95.30
2018-10-19T11:37:34.026Z,95.30
2018-10-19T11:40:32.068Z,96.89
2018-10-19T11:43:02.593Z,95.60
2018-10-19T11:45:34.010Z,95.01
2018-10-19T11:48:04.525Z,95.39
2018-10-19T11:50:35.264Z,95.78
2018-10-19T11:53:06.063Z,97.40
2018-10-19T11:58:18.645Z,98.76
2018-10-19T12:00:48.989Z,98.48
2018-10-19T12:03:19.452Z,100.00
2018-10-19T12:05:49.949Z,100.00
2018-10-19T12:08:20.568Z,100.00
2018-10-19T12:10:51.077Z,100.00
2018-10-19T12:13:21.597Z,98.72
2018-10-19T12:15:52.066Z,98.10
2018-10-19T12:18:22.541Z,99.20
2018-10-19T12:20:52.998Z,100.00
2018-10-19T12:23:23.429Z,100.00
2018-10-19T12:25:53.992Z,99.47
2018-10-19T12:28:24.452Z,99.94
2018-10-19T12:30:54.935Z,100.00
2018-10-19T12:33:25.466Z,100.00
2018-10-19T12:35:55.945Z,100.00
2018-10-19T12:38:26.457Z,100.00
2018-10-19T12:40:57.190Z,100.00
2018-10-19T12:43:27.702Z,100.00
2018-10-19T12:46:36.074Z,100.00
2018-10-19T12:49:06.817Z,100.00
2018-10-19T12:51:37.624Z,100.00
2018-10-19T12:54:08.523Z,100.00
2018-10-19T12:56:39.252Z,100.00
2018-10-19T12:59:09.836Z,100.00
2018-10-19T13:01:40.416Z,100.00
2018-10-19T13:04:10.926Z,100.00
2018-10-19T13:06:41.478Z,100.00
2018-10-19T13:09:13.495Z,100.00
2018-10-19T13:11:44.586Z,100.00
2018-10-19T13:14:15.093Z,100.00
2018-10-19T13:16:45.535Z,100.00
2018-10-19T13:19:16.031Z,100.00
2018-10-19T13:21:46.517Z,100.00
2018-10-19T13:24:17.115Z,100.00
2018-10-19T13:26:47.688Z,100.00
2018-10-19T13:29:18.068Z,100.00
2018-10-19T13:31:48.576Z,100.00
2018-10-19T13:34:19.126Z,100.00
2018-10-19T13:36:49.926Z,100.00
2018-10-19T13:39:20.436Z,100.00
2018-10-19T13:41:50.937Z,100.00
2018-10-19T13:44:21.370Z,100.00
2018-10-19T13:46:51.997Z,100.00
2018-10-19T13:49:22.418Z,100.00
2018-10-19T13:51:53.033Z,100.00
2018-10-19T13:54:23.481Z,100.00
2018-10-19T13:56:55.799Z,100.00
2018-10-19T13:59:26.322Z,100.00
2018-10-19T14:01:56.822Z,100.00
2018-10-19T14:04:27.314Z,100.00
2018-10-19T14:06:57.815Z,100.00
2018-10-19T14:09:28.171Z,100.00
2018-10-19T14:11:58.704Z,100.00
2018-10-19T14:14:29.134Z,100.00
2018-10-19T14:16:59.855Z,100.00
2018-10-19T14:19:31.080Z,100.00
2018-10-19T14:22:01.639Z,100.00
2018-10-19T14:24:32.097Z,100.00
2018-10-19T14:27:02.532Z,100.00
2018-10-19T14:29:33.055Z,100.00
2018-10-19T14:32:03.539Z,100.00
2018-10-19T14:34:34.185Z,100.00
2018-10-19T14:37:04.952Z,100.00
2018-10-19T14:39:35.500Z,100.00
2018-10-19T14:42:06.161Z,100.00
2018-10-19T14:44:36.737Z,100.00
2018-10-19T14:47:07.366Z,100.00
2018-10-19T14:49:37.819Z,100.00
2018-10-19T14:52:08.271Z,100.00
2018-10-19T14:54:38.930Z,100.00
2018-10-19T14:57:09.538Z,100.00
2018-10-19T14:59:39.938Z,100.00
2018-10-19T15:02:10.502Z,100.00
2018-10-19T15:04:40.936Z,100.00
2018-10-19T15:07:11.380Z,100.00
2018-10-19T15:09:42.008Z,100.00
2018-10-19T15:12:12.468Z,100.00
2018-10-19T15:14:42.922Z,100.00
2018-10-19T15:17:14.898Z,100.00
2018-10-19T15:19:45.432Z,100.00
2018-10-19T15:22:15.905Z,100.00
2018-10-19T15:24:46.386Z,100.00
2018-10-19T15:27:16.935Z,100.00
2018-10-19T15:29:47.488Z,100.00
2018-10-19T15:32:17.874Z,100.00
2018-10-19T15:34:48.240Z,100.00
2018-10-19T15:37:18.986Z,100.00
2018-10-19T15:39:49.444Z,100.00
2018-10-19T15:42:19.926Z,100.00
2018-10-19T15:44:50.399Z,100.00
2018-10-19T15:47:25.851Z,100.00
2018-10-19T15:49:57.751Z,100.00
2018-10-19T15:52:28.644Z,100.00
2018-10-19T15:54:59.155Z,100.00
2018-10-19T15:57:29.852Z,100.00
2018-10-19T16:00:00.421Z,100.00
2018-10-19T16:02:30.862Z,100.00
2018-10-19T16:05:01.446Z,100.00
2018-10-19T16:07:31.928Z,100.00
2018-10-19T16:10:02.532Z,100.00
2018-10-19T16:12:33.103Z,100.00
2018-10-19T16:15:03.657Z,100.00
2018-10-19T16:17:34.336Z,100.00
2018-10-19T16:20:05.226Z,100.00
2018-10-19T16:22:35.644Z,100.00
2018-10-19T16:25:07.057Z,100.00
2018-10-19T16:27:38.594Z,100.00
2018-10-19T16:30:10.861Z,100.00
2018-10-19T16:32:41.585Z,100.00
2018-10-19T16:35:12.198Z,100.00
2018-10-19T16:37:42.895Z,100.00
2018-10-19T16:40:13.416Z,100.00
2018-10-19T16:42:43.935Z,100.00
2018-10-19T16:45:14.536Z,100.00
2018-10-19T16:47:44.946Z,100.00
2018-10-19T16:50:15.538Z,100.00
2018-10-19T16:52:46.068Z,100.00
2018-10-19T16:55:16.698Z,100.00
2018-10-19T16:57:47.378Z,100.00
2018-10-19T17:00:17.832Z,100.00
2018-10-19T17:02:48.285Z,100.00
2018-10-19T17:05:18.935Z,100.00
2018-10-19T17:07:49.724Z,100.00
2018-10-19T17:10:20.224Z,100.00
2018-10-19T17:12:50.879Z,100.00
2018-10-19T17:15:21.287Z,100.00
2018-10-19T17:17:51.873Z,100.00
2018-10-19T17:20:22.389Z,100.00
2018-10-19T17:22:52.800Z,100.00
2018-10-19T17:25:23.339Z,100.00
2018-10-19T17:27:53.825Z,100.00
2018-10-19T17:30:24.376Z,100.00
2018-10-19T17:32:55.014Z,100.00
2018-10-19T17:35:25.400Z,100.00
2018-10-19T17:37:56.229Z,100.00
2018-10-19T17:40:26.705Z,100.00
2018-10-19T17:42:57.255Z,100.00
2018-10-19T17:45:27.773Z,100.00
2018-10-19T17:47:58.376Z,100.00
2018-10-19T17:50:28.885Z,100.00
2018-10-19T17:52:59.358Z,100.00
2018-10-19T17:55:29.839Z,100.00
2018-10-19T17:58:00.534Z,100.00
2018-10-19T18:00:31.010Z,100.00
2018-10-19T18:03:01.568Z,100.00
2018-10-19T18:05:32.043Z,100.00
2018-10-19T18:08:02.619Z,100.00
2018-10-19T18:10:33.131Z,100.00
2018-10-19T18:13:03.629Z,100.00
2018-10-19T18:15:34.197Z,100.00
2018-10-19T18:18:05.272Z,100.00
2018-10-19T18:20:35.738Z,100.00
2018-10-19T18:23:06.446Z,100.00
2018-10-19T18:25:36.842Z,100.00
2018-10-19T18:28:07.342Z,100.00
2018-10-19T18:30:37.781Z,100.00
2018-10-19T18:33:08.254Z,100.00
2018-10-19T18:35:39.080Z,100.00
2018-10-19T18:38:09.809Z,100.00
2018-10-19T18:40:40.264Z,100.00
2018-10-19T18:43:10.670Z,100.00
2018-10-19T18:45:41.228Z,100.00
2018-10-19T18:48:11.681Z,100.00
2018-10-19T18:50:42.329Z,100.00
2018-10-19T18:53:12.886Z,100.00
2018-10-19T18:55:43.224Z,100.00
2018-10-19T18:58:15.529Z,100.00
2018-10-19T19:00:46.012Z,100.00
2018-10-19T19:03:16.507Z,100.00
2018-10-19T19:05:46.980Z,100.00
2018-10-19T19:08:17.422Z,100.00
2018-10-19T19:10:47.944Z,100.00
2018-10-19T19:13:23.380Z,100.00
2018-10-19T19:15:53.769Z,100.00
2018-10-19T19:18:24.313Z,100.00
2018-10-19T19:20:55.182Z,100.00
2018-10-19T19:23:25.663Z,100.00
2018-10-19T19:26:00.963Z,100.00
2018-10-19T19:28:31.498Z,100.00
2018-10-19T19:31:02.019Z,100.00
2018-10-19T19:33:37.277Z,100.00
2018-10-19T19:36:08.298Z,100.00
2018-10-19T19:38:39.084Z,100.00
2018-10-19T19:41:14.549Z,100.00
2018-10-19T19:43:45.220Z,100.00
2018-10-19T19:46:15.846Z,100.00
2018-10-19T19:48:52.102Z,100.00
2018-10-19T19:51:22.569Z,100.00
2018-10-19T19:53:53.066Z,100.00
2018-10-19T19:56:24.429Z,100.00
2018-10-19T19:58:55.210Z,100.00
2018-10-19T20:01:25.750Z,100.00
2018-10-19T20:03:56.237Z,100.00
2018-10-19T20:06:26.707Z,100.00
2018-10-19T20:08:57.259Z,100.00
2018-10-19T20:11:27.672Z,100.00
2018-10-19T20:13:58.189Z,100.00
2018-10-19T20:16:35.957Z,100.00
2018-10-19T20:19:06.938Z,100.00
2018-10-19T20:21:37.447Z,100.00
2018-10-19T20:24:08.177Z,100.00
2018-10-19T20:26:38.681Z,100.00
2018-10-19T20:29:09.209Z,100.00
2018-10-19T20:31:40.013Z,100.00
2018-10-19T20:34:10.519Z,100.00
2018-10-19T20:36:41.139Z,100.00
2018-10-19T20:39:12.971Z,100.00
2018-10-19T20:41:43.475Z,100.00
2018-10-19T20:44:14.026Z,100.00
2018-10-19T20:46:44.477Z,100.00
2018-10-19T20:49:14.873Z,100.00
2018-10-19T20:51:45.317Z,100.00
2018-10-19T20:54:15.906Z,100.00
2018-10-19T20:56:46.471Z,100.00
2018-10-19T20:59:17.872Z,100.00
2018-10-19T21:01:48.504Z,100.00
2018-10-19T21:04:19.110Z,100.00
2018-10-19T21:06:49.738Z,100.00
2018-10-19T21:09:20.351Z,100.00
2018-10-19T21:11:50.791Z,100.00
2018-10-19T21:14:21.339Z,100.00
2018-10-19T21:16:51.772Z,100.00
2018-10-19T21:19:22.664Z,100.00
2018-10-19T21:21:53.314Z,100.00
2018-10-19T21:24:23.879Z,100.00
2018-10-19T21:26:54.484Z,100.00
2018-10-19T21:29:25.112Z,100.00
2018-10-19T21:31:55.775Z,100.00
2018-10-19T21:34:26.295Z,100.00
2018-10-19T21:36:56.842Z,100.00
2018-10-19T21:39:27.442Z,100.00
2018-10-19T21:41:58.597Z,100.00
2018-10-19T21:44:29.166Z,100.00
2018-10-19T21:46:59.705Z,100.00
2018-10-19T21:49:30.161Z,100.00
2018-10-19T21:52:00.676Z,100.00
2018-10-19T21:54:31.104Z,100.00
2018-10-19T21:57:01.672Z,100.00
2018-10-19T21:59:32.191Z,100.00
2018-10-19T22:02:02.675Z,100.00
2018-10-19T22:04:33.208Z,100.00
2018-10-19T22:07:03.619Z,100.00
2018-10-19T22:09:34.070Z,100.00
2018-10-19T22:12:04.728Z,100.00
2018-10-19T22:14:35.319Z,100.00
2018-10-19T22:17:05.923Z,100.00
2018-10-19T22:19:36.819Z,100.00
2018-10-19T22:22:07.578Z,100.00
2018-10-19T22:24:38.113Z,100.00
2018-10-19T22:27:08.686Z,100.00
2018-10-19T22:29:39.344Z,100.00
2018-10-19T22:32:09.843Z,100.00
2018-10-19T22:34:40.503Z,100.00
2018-10-19T22:37:11.172Z,100.00
2018-10-19T22:39:41.911Z,100.00
2018-10-19T22:42:12.392Z,100.00
2018-10-19T22:44:42.805Z,100.00
2018-10-19T22:47:13.423Z,100.00
2018-10-19T22:49:43.847Z,100.00
2018-10-19T22:52:14.338Z,100.00
2018-10-19T22:54:44.854Z,100.00
2018-10-19T22:57:15.333Z,100.00
2018-10-19T22:59:45.816Z,100.00
2018-10-19T23:02:16.951Z,100.00
2018-10-19T23:04:47.476Z,100.00
2018-10-19T23:07:18.007Z,100.00
2018-10-19T23:09:49.539Z,100.00
2018-10-19T23:12:20.039Z,100.00
2018-10-19T23:14:50.557Z,100.00
2018-10-19T23:17:21.046Z,100.00
2018-10-19T23:19:51.498Z,100.00
2018-10-19T23:22:22.012Z,100.00
2018-10-19T23:24:52.597Z,100.00
2018-10-19T23:27:23.054Z,100.00
2018-10-19T23:29:53.558Z,100.00
2018-10-19T23:32:24.174Z,100.00
2018-10-19T23:34:54.857Z,100.00
2018-10-19T23:37:25.608Z,100.00
2018-10-19T23:39:56.102Z,100.00
2018-10-19T23:42:26.560Z,100.00
2018-10-19T23:44:57.128Z,100.00
2018-10-19T23:47:27.671Z,100.00
2018-10-19T23:49:58.526Z,100.00
2018-10-19T23:52:29.177Z,100.00
2018-10-19T23:54:59.852Z,100.00
2018-10-19T23:57:30.335Z,100.00
